createdAt,value
2022-12-09T00:01:30.331Z,55.77
2022-12-09T00:03:58.428Z,55.70
2022-12-09T00:06:31.306Z,57.33
2022-12-09T00:08:59.652Z,57.67
2022-12-09T00:11:27.833Z,51.50
2022-12-09T00:13:59.669Z,54.97
2022-12-09T00:16:29.593Z,58.17
2022-12-09T00:18:59.088Z,55.97
2022-12-09T00:21:32.843Z,60.53
2022-12-09T00:24:05.701Z,58.90
2022-12-09T00:26:36.606Z,59.13
2022-12-09T00:29:04.408Z,57.53
2022-12-09T00:31:34.374Z,60.20
2022-12-09T00:34:05.518Z,59.53
2022-12-09T00:36:33.536Z,62.63
2022-12-09T00:39:01.439Z,58.50
2022-12-09T00:41:30.232Z,60.13
2022-12-09T00:44:01.380Z,58.10
2022-12-09T00:46:29.563Z,58.23
2022-12-09T00:49:03.367Z,61.70
2022-12-09T00:51:33.016Z,60.30
2022-12-09T00:54:00.782Z,66.10
2022-12-09T00:56:30.074Z,64.80
2022-12-09T00:59:01.260Z,60.47
2022-12-09T01:01:30.218Z,60.33
2022-12-09T01:03:58.232Z,52.83
2022-12-09T01:06:27.556Z,61.13
2022-12-09T01:08:56.615Z,63.37
2022-12-09T01:11:26.082Z,60.07
2022-12-09T01:13:57.971Z,61.70
2022-12-09T01:16:28.379Z,60.07
2022-12-09T01:18:59.821Z,55.23
2022-12-09T01:21:31.457Z,55.97
2022-12-09T01:24:01.265Z,53.50
2022-12-09T01:26:31.785Z,49.60
2022-12-09T01:28:59.422Z,51.63
2022-12-09T01:31:27.568Z,81.50
2022-12-09T01:33:56.217Z,49.20
2022-12-09T01:36:26.203Z,43.17
2022-12-09T01:38:54.843Z,47.17
2022-12-09T01:41:24.110Z,43.60
2022-12-09T01:44:10.590Z,50.77
2022-12-09T01:46:42.041Z,50.07
2022-12-09T01:49:13.201Z,47.10
2022-12-09T01:51:41.229Z,47.90
2022-12-09T01:54:09.743Z,49.47
2022-12-09T01:56:41.039Z,47.27
2022-12-09T01:59:11.110Z,49.40
2022-12-09T02:01:39.754Z,47.83
2022-12-09T02:04:07.879Z,49.97
2022-12-09T02:06:37.267Z,48.10
2022-12-09T02:09:05.882Z,46.47
2022-12-09T02:11:49.881Z,44.73
2022-12-09T02:14:21.755Z,47.07
2022-12-09T02:17:00.208Z,43.60
2022-12-09T02:19:45.131Z,42.70
2022-12-09T02:22:17.661Z,48.97
2022-12-09T02:24:56.270Z,48.27
2022-12-09T02:27:33.014Z,48.80
2022-12-09T02:30:08.680Z,46.80
2022-12-09T02:33:02.090Z,44.17
2022-12-09T02:35:37.290Z,45.73
2022-12-09T02:38:11.691Z,49.57
2022-12-09T02:40:47.314Z,45.13
2022-12-09T02:43:21.576Z,48.47
2022-12-09T02:45:53.772Z,49.60
2022-12-09T02:48:25.789Z,43.90
2022-12-09T02:50:56.748Z,49.17
2022-12-09T02:53:26.450Z,48.43
2022-12-09T02:55:55.706Z,42.67
2022-12-09T02:58:23.126Z,44.53
2022-12-09T03:00:52.230Z,42.73
2022-12-09T03:03:20.256Z,44.37
2022-12-09T03:05:52.607Z,44.97
2022-12-09T03:08:29.765Z,43.97
2022-12-09T03:11:00.479Z,40.73
2022-12-09T03:13:42.813Z,43.80
2022-12-09T03:16:18.471Z,43.30
2022-12-09T03:18:55.639Z,40.40
2022-12-09T03:21:26.362Z,45.53
2022-12-09T03:23:57.324Z,40.50
2022-12-09T03:26:28.498Z,42.80
2022-12-09T03:28:57.903Z,45.10
2022-12-09T03:31:29.389Z,43.67
2022-12-09T03:34:01.941Z,49.37
2022-12-09T03:36:35.334Z,46.37
2022-12-09T03:39:08.151Z,48.77
2022-12-09T03:41:38.559Z,48.33
2022-12-09T03:44:13.236Z,50.13
2022-12-09T03:46:41.037Z,47.97
2022-12-09T03:49:09.278Z,52.33
2022-12-09T03:51:41.227Z,48.40
2022-12-09T03:54:15.943Z,48.10
2022-12-09T03:56:48.034Z,47.03
2022-12-09T03:59:17.370Z,50.30
2022-12-09T04:01:46.210Z,47.50
2022-12-09T04:04:13.962Z,47.13
2022-12-09T04:06:41.242Z,48.80
2022-12-09T04:09:10.051Z,51.93
2022-12-09T04:11:38.694Z,50.20
2022-12-09T04:14:10.463Z,48.53
2022-12-09T04:16:40.982Z,47.17
2022-12-09T04:19:08.390Z,46.97
2022-12-09T04:21:35.880Z,44.20
2022-12-09T04:24:03.764Z,47.13
2022-12-09T04:26:31.139Z,44.10
2022-12-09T04:29:00.142Z,42.10
2022-12-09T04:31:28.489Z,41.43
2022-12-09T04:33:56.158Z,42.93
2022-12-09T04:36:23.765Z,47.30
2022-12-09T04:38:51.735Z,46.17
2022-12-09T04:41:19.008Z,46.97
2022-12-09T04:43:46.947Z,45.40
2022-12-09T04:46:18.193Z,48.80
2022-12-09T04:48:47.046Z,45.77
2022-12-09T04:51:15.609Z,51.50
2022-12-09T04:53:43.642Z,48.60
2022-12-09T04:56:15.263Z,47.27
2022-12-09T04:58:45.181Z,43.77
2022-12-09T05:01:17.769Z,44.97
2022-12-09T05:03:48.726Z,50.93
2022-12-09T05:06:16.454Z,47.47
2022-12-09T05:08:44.630Z,48.17
2022-12-09T05:11:14.151Z,49.80
2022-12-09T05:13:41.968Z,49.57
2022-12-09T05:16:15.898Z,49.77
2022-12-09T05:18:47.296Z,48.90
2022-12-09T05:21:16.622Z,45.03
2022-12-09T05:23:45.032Z,47.60
2022-12-09T05:26:15.951Z,47.73
2022-12-09T05:28:43.733Z,44.67
2022-12-09T05:31:14.880Z,44.20
2022-12-09T05:33:43.276Z,51.60
2022-12-09T05:36:13.164Z,44.90
2022-12-09T05:38:41.252Z,51.03
2022-12-09T05:41:08.248Z,42.33
2022-12-09T05:43:37.690Z,51.30
2022-12-09T05:46:06.757Z,49.17
2022-12-09T05:48:34.589Z,52.50
2022-12-09T05:51:04.232Z,50.80
2022-12-09T05:53:32.947Z,48.50
2022-12-09T05:56:00.854Z,53.20
2022-12-09T05:58:28.413Z,50.57
2022-12-09T06:00:58.643Z,48.13
2022-12-09T06:03:26.427Z,55.73
2022-12-09T06:05:53.691Z,54.33
2022-12-09T06:08:21.778Z,58.53
2022-12-09T06:10:50.313Z,53.33
2022-12-09T06:13:17.715Z,51.70
2022-12-09T06:15:44.769Z,54.20
2022-12-09T06:18:12.197Z,52.33
2022-12-09T06:20:40.450Z,51.83
2022-12-09T06:23:07.831Z,55.00
2022-12-09T06:25:35.004Z,50.97
2022-12-09T06:28:04.109Z,47.97
2022-12-09T06:30:31.819Z,55.37
2022-12-09T06:32:59.408Z,53.80
2022-12-09T06:35:26.876Z,55.83
2022-12-09T06:37:54.723Z,59.80
2022-12-09T06:40:22.211Z,57.37
2022-12-09T06:42:53.144Z,56.50
2022-12-09T06:45:21.750Z,58.60
2022-12-09T06:47:49.609Z,53.77
2022-12-09T06:50:17.634Z,52.60
2022-12-09T06:52:45.453Z,53.27
2022-12-09T06:55:13.115Z,48.47
2022-12-09T06:57:40.833Z,48.97
2022-12-09T07:00:09.151Z,50.73
2022-12-09T07:02:38.265Z,44.30
2022-12-09T07:05:06.828Z,42.83
2022-12-09T07:07:35.141Z,48.80
2022-12-09T07:10:03.169Z,39.97
2022-12-09T07:12:30.340Z,46.40
2022-12-09T07:14:57.596Z,43.97
2022-12-09T07:17:25.532Z,43.00
2022-12-09T07:19:54.169Z,46.13
2022-12-09T07:22:21.502Z,43.23
2022-12-09T07:24:48.758Z,43.23
2022-12-09T07:27:19.548Z,49.73
2022-12-09T07:29:47.280Z,55.30
2022-12-09T07:32:14.900Z,56.60
2022-12-09T07:34:43.250Z,47.03
2022-12-09T07:37:12.078Z,44.80
2022-12-09T07:39:39.474Z,49.67
2022-12-09T07:42:06.581Z,44.03
2022-12-09T07:44:34.437Z,42.33
2022-12-09T07:47:01.885Z,42.53
2022-12-09T07:49:29.842Z,47.77
2022-12-09T07:51:57.393Z,43.00
2022-12-09T07:54:25.994Z,39.77
2022-12-09T07:56:53.045Z,41.33
2022-12-09T07:59:20.393Z,37.97
2022-12-09T08:01:47.408Z,41.73
2022-12-09T08:04:14.668Z,43.30
2022-12-09T08:06:42.630Z,41.70
2022-12-09T08:09:13.569Z,39.57
2022-12-09T08:11:42.616Z,39.47
2022-12-09T08:14:13.006Z,35.63
2022-12-09T08:16:41.613Z,42.97
2022-12-09T08:19:09.159Z,35.40
2022-12-09T08:21:36.746Z,35.80
2022-12-09T08:24:05.971Z,36.27
2022-12-09T08:26:35.095Z,35.30
2022-12-09T08:29:07.582Z,38.17
2022-12-09T08:31:40.642Z,39.10
2022-12-09T08:34:09.005Z,37.13
2022-12-09T08:36:37.381Z,33.13
2022-12-09T08:39:06.121Z,33.07
2022-12-09T08:41:35.799Z,41.70
2022-12-09T08:44:07.287Z,32.63
2022-12-09T08:46:35.585Z,40.83
2022-12-09T08:49:04.527Z,32.63
2022-12-09T08:51:33.244Z,34.30
2022-12-09T08:54:01.415Z,33.87
2022-12-09T08:56:29.188Z,29.83
2022-12-09T08:58:57.185Z,32.43
2022-12-09T09:01:32.990Z,32.60
2022-12-09T09:04:00.901Z,34.00
2022-12-09T09:06:29.138Z,32.07
2022-12-09T09:08:56.961Z,30.10
2022-12-09T09:11:26.053Z,29.07
2022-12-09T09:13:53.259Z,36.53
2022-12-09T09:16:23.690Z,33.90
2022-12-09T09:18:52.654Z,36.33
2022-12-09T09:21:22.469Z,30.80
2022-12-09T09:23:50.323Z,31.27
2022-12-09T09:26:21.416Z,31.03
2022-12-09T09:28:49.595Z,32.40
2022-12-09T09:31:18.425Z,30.00
2022-12-09T09:33:46.116Z,28.23
2022-12-09T09:36:16.998Z,30.97
2022-12-09T09:38:43.986Z,34.47
2022-12-09T09:41:21.787Z,30.50
2022-12-09T09:43:49.873Z,34.10
2022-12-09T09:46:22.758Z,34.20
2022-12-09T09:48:51.132Z,36.90
2022-12-09T09:51:21.268Z,29.37
2022-12-09T09:53:52.014Z,33.93
2022-12-09T09:56:26.352Z,30.40
2022-12-09T09:59:00.749Z,32.40
2022-12-09T10:01:33.670Z,32.27
2022-12-09T10:04:07.483Z,34.27
2022-12-09T10:06:45.739Z,29.83
2022-12-09T10:09:20.316Z,33.63
2022-12-09T10:11:57.469Z,33.97
2022-12-09T10:14:34.400Z,28.27
2022-12-09T10:17:12.760Z,30.77
2022-12-09T10:19:44.509Z,32.10
2022-12-09T10:22:15.652Z,27.27
2022-12-09T10:24:48.590Z,27.17
2022-12-09T10:27:26.472Z,26.83
2022-12-09T10:29:59.300Z,28.07
2022-12-09T10:32:29.659Z,26.53
2022-12-09T10:34:57.416Z,25.73
2022-12-09T10:37:29.883Z,25.93
2022-12-09T10:40:22.055Z,26.87
2022-12-09T10:43:10.399Z,23.13
2022-12-09T10:46:15.768Z,26.50
2022-12-09T10:48:36.458Z,31.00
2022-12-09T10:51:07.006Z,35.33
2022-12-09T10:53:36.826Z,44.37
2022-12-09T10:56:04.982Z,40.50
2022-12-09T10:58:32.717Z,36.17
2022-12-09T11:01:07.885Z,39.77
2022-12-09T11:03:38.758Z,38.73
2022-12-09T11:06:18.619Z,40.47
2022-12-09T11:08:53.775Z,38.50
2022-12-09T11:11:39.594Z,41.70
2022-12-09T11:14:24.206Z,37.90
2022-12-09T11:16:53.019Z,40.43
2022-12-09T11:19:30.047Z,39.63
2022-12-09T11:22:21.436Z,37.63
2022-12-09T11:24:50.006Z,40.50
2022-12-09T11:27:36.169Z,35.03
2022-12-09T11:30:16.032Z,34.03
2022-12-09T11:32:56.450Z,33.43
2022-12-09T11:35:30.232Z,32.10
2022-12-09T11:37:59.951Z,30.37
2022-12-09T11:40:29.061Z,27.40
2022-12-09T11:42:57.270Z,28.80
2022-12-09T11:45:29.982Z,28.17
2022-12-09T11:48:29.863Z,26.50
2022-12-09T11:50:53.335Z,24.83
2022-12-09T11:53:27.071Z,24.00
2022-12-09T11:55:59.681Z,28.20
2022-12-09T11:58:30.040Z,24.93
2022-12-09T12:01:01.861Z,25.70
2022-12-09T12:03:36.465Z,24.23
2022-12-09T12:06:06.429Z,29.17
2022-12-09T12:08:40.549Z,30.73
2022-12-09T12:11:15.336Z,30.17
2022-12-09T12:13:46.620Z,28.33
2022-12-09T12:16:20.494Z,30.07
2022-12-09T12:18:52.864Z,27.77
2022-12-09T12:21:37.302Z,31.47
2022-12-09T12:24:47.479Z,30.07
2022-12-09T12:27:34.771Z,26.80
2022-12-09T12:30:06.877Z,30.10
2022-12-09T12:35:56.735Z,26.30
2022-12-09T12:38:44.934Z,33.27
2022-12-09T12:41:17.604Z,36.47
2022-12-09T12:44:18.512Z,36.60
2022-12-09T12:46:54.470Z,36.00
2022-12-09T12:49:46.220Z,30.23
2022-12-09T12:52:54.259Z,27.20
2022-12-09T12:55:21.766Z,32.00
2022-12-09T12:57:57.692Z,31.60
2022-12-09T13:00:32.527Z,33.67
2022-12-09T13:03:10.714Z,33.50
2022-12-09T13:05:41.492Z,33.13
2022-12-09T13:08:13.906Z,30.30
2022-12-09T13:10:43.974Z,31.07
2022-12-09T13:13:17.508Z,33.20
2022-12-09T13:15:49.396Z,31.73
2022-12-09T13:18:26.594Z,31.87
2022-12-09T13:20:54.868Z,33.73
2022-12-09T13:23:41.284Z,35.80
2022-12-09T13:26:26.135Z,35.43
2022-12-09T13:29:01.712Z,30.80
2022-12-09T13:31:39.450Z,32.03
2022-12-09T13:34:23.656Z,29.90
2022-12-09T13:36:51.381Z,27.47
2022-12-09T13:39:58.837Z,28.67
2022-12-09T13:42:59.403Z,27.50
2022-12-09T13:45:32.067Z,27.90
2022-12-09T13:48:26.347Z,30.97
2022-12-09T13:51:00.156Z,31.87
2022-12-09T13:53:34.501Z,30.93
2022-12-09T13:56:05.262Z,31.53
2022-12-09T13:59:21.107Z,34.07
2022-12-09T14:01:49.766Z,32.53
2022-12-09T14:04:26.906Z,34.30
2022-12-09T14:07:10.103Z,36.00
2022-12-09T14:09:49.607Z,35.00
2022-12-09T14:13:04.216Z,36.60
2022-12-09T14:15:42.778Z,38.20
2022-12-09T14:18:40.062Z,34.63
2022-12-09T14:21:35.276Z,29.93
2022-12-09T14:24:55.294Z,33.93
2022-12-09T14:27:36.816Z,42.30
2022-12-09T14:31:08.652Z,39.70
2022-12-09T14:33:38.679Z,34.23
2022-12-09T14:36:52.809Z,39.60
2022-12-09T14:39:29.687Z,35.50
2022-12-09T14:42:09.932Z,38.17
2022-12-09T14:44:44.573Z,35.93
2022-12-09T14:47:54.567Z,33.97
2022-12-09T14:50:49.062Z,36.07
2022-12-09T14:53:33.292Z,37.93
2022-12-09T14:56:08.506Z,36.93
2022-12-09T14:58:43.284Z,37.60
2022-12-09T15:01:11.154Z,37.03
2022-12-09T15:03:50.720Z,37.87
2022-12-09T15:06:33.129Z,36.80
2022-12-09T15:09:07.392Z,35.10
2022-12-09T15:11:40.320Z,39.47
2022-12-09T15:14:32.171Z,36.63
2022-12-09T15:17:03.278Z,36.60
2022-12-09T15:22:38.447Z,43.47
2022-12-09T15:25:26.812Z,39.70
2022-12-09T15:28:01.831Z,38.83
2022-12-09T15:30:40.731Z,40.30
2022-12-09T15:33:21.779Z,39.93
2022-12-09T15:36:07.724Z,36.27
2022-12-09T15:38:41.118Z,40.60
2022-12-09T15:41:32.638Z,39.73
2022-12-09T15:44:09.535Z,36.97
2022-12-09T15:46:42.703Z,36.17
2022-12-09T15:49:16.605Z,37.23
2022-12-09T15:52:01.910Z,47.90
2022-12-09T15:54:37.346Z,44.50
2022-12-09T15:57:09.186Z,40.37
2022-12-09T15:59:41.157Z,42.37
2022-12-09T16:02:13.755Z,40.97
2022-12-09T16:04:47.364Z,43.27
2022-12-09T16:07:21.952Z,41.17
2022-12-09T16:10:14.829Z,44.97
2022-12-09T16:13:06.935Z,41.17
2022-12-09T16:15:55.122Z,38.23
2022-12-09T16:18:29.975Z,40.97
2022-12-09T16:21:36.496Z,38.07
2022-12-09T16:24:19.140Z,41.23
2022-12-09T16:26:59.422Z,39.20
2022-12-09T16:29:34.511Z,46.60
2022-12-09T16:32:40.144Z,48.03
2022-12-09T16:35:28.103Z,44.67
2022-12-09T16:38:34.446Z,42.50
2022-12-09T16:41:28.766Z,43.37
2022-12-09T16:44:05.233Z,47.47
2022-12-09T16:46:53.865Z,48.07
2022-12-09T16:49:21.131Z,61.97
2022-12-09T16:51:48.706Z,48.73
2022-12-09T16:54:20.168Z,49.70
2022-12-09T16:56:54.684Z,43.43
2022-12-09T16:59:34.813Z,43.37
2022-12-09T17:02:16.259Z,44.03
2022-12-09T17:05:02.862Z,44.57
2022-12-09T17:07:36.608Z,41.77
2022-12-09T17:10:13.251Z,42.57
2022-12-09T17:12:44.760Z,41.97
2022-12-09T17:15:15.263Z,40.17
2022-12-09T17:17:49.163Z,46.27
2022-12-09T17:20:19.421Z,44.03
2022-12-09T17:22:49.938Z,47.90
2022-12-09T17:25:17.944Z,46.23
2022-12-09T17:27:47.981Z,44.80
2022-12-09T17:30:15.179Z,41.10
2022-12-09T17:32:44.467Z,41.30
2022-12-09T17:35:19.706Z,41.10
2022-12-09T17:37:51.470Z,42.50
2022-12-09T17:40:19.028Z,43.90
2022-12-09T17:42:49.382Z,39.60
2022-12-09T17:45:16.910Z,40.63
2022-12-09T17:47:46.226Z,43.23
2022-12-09T17:50:13.561Z,40.80
2022-12-09T17:52:44.764Z,44.93
2022-12-09T17:55:12.614Z,40.93
2022-12-09T17:57:46.080Z,42.97
2022-12-09T18:00:16.918Z,44.30
2022-12-09T18:02:45.795Z,40.17
2022-12-09T18:05:13.928Z,53.67
2022-12-09T18:07:43.792Z,42.63
2022-12-09T18:10:11.788Z,47.23
2022-12-09T18:12:39.599Z,40.77
2022-12-09T18:15:07.907Z,38.10
2022-12-09T18:17:40.785Z,38.27
2022-12-09T18:20:13.062Z,42.97
2022-12-09T18:22:43.173Z,52.67
2022-12-09T18:25:18.376Z,44.87
2022-12-09T18:27:47.056Z,45.30
2022-12-09T18:30:14.470Z,49.87
2022-12-09T18:32:42.303Z,47.80
2022-12-09T18:35:17.179Z,50.73
2022-12-09T18:37:49.002Z,46.27
2022-12-09T18:40:21.228Z,50.10
2022-12-09T18:42:55.495Z,51.87
2022-12-09T18:45:23.019Z,56.90
2022-12-09T18:47:50.886Z,53.67
2022-12-09T18:50:19.655Z,63.73
2022-12-09T18:52:47.655Z,57.73
2022-12-09T18:55:17.892Z,73.50
2022-12-09T18:57:47.544Z,65.03
2022-12-09T19:00:15.502Z,60.50
2022-12-09T19:02:45.839Z,59.57
2022-12-09T19:05:16.309Z,66.63
2022-12-09T19:07:47.769Z,57.63
2022-12-09T19:10:15.114Z,59.50
2022-12-09T19:12:50.589Z,63.80
2022-12-09T19:15:23.669Z,68.63
2022-12-09T19:17:57.063Z,63.07
2022-12-09T19:20:25.564Z,62.60
2022-12-09T19:22:55.668Z,60.53
2022-12-09T19:25:23.397Z,57.43
2022-12-09T19:27:53.158Z,54.30
2022-12-09T19:30:20.622Z,60.30
2022-12-09T19:32:53.476Z,58.00
2022-12-09T19:35:21.029Z,61.53
2022-12-09T19:37:48.662Z,61.37
2022-12-09T19:40:26.765Z,64.17
2022-12-09T19:43:03.147Z,70.60
2022-12-09T19:45:30.961Z,69.73
2022-12-09T19:48:02.544Z,61.87
2022-12-09T19:50:31.951Z,65.07
2022-12-09T19:53:00.595Z,62.13
2022-12-09T19:55:28.887Z,62.03
2022-12-09T19:57:59.587Z,70.33
2022-12-09T20:00:36.799Z,84.87
2022-12-09T20:03:14.696Z,67.70
2022-12-09T20:05:53.720Z,61.50
2022-12-09T20:08:24.524Z,59.90
2022-12-09T20:11:00.426Z,54.73
2022-12-09T20:13:32.247Z,54.10
2022-12-09T20:16:17.482Z,54.47
2022-12-09T20:18:48.476Z,51.53
2022-12-09T20:21:22.987Z,58.57
2022-12-09T20:23:57.469Z,60.17
2022-12-09T20:26:43.430Z,62.63
2022-12-09T20:29:18.743Z,53.47
2022-12-09T20:31:54.710Z,58.43
2022-12-09T20:34:28.614Z,62.43
2022-12-09T20:37:11.735Z,46.27
2022-12-09T20:39:49.484Z,48.00
2022-12-09T20:42:27.046Z,50.20
2022-12-09T20:44:54.311Z,47.43
2022-12-09T20:47:37.724Z,40.70
2022-12-09T20:50:09.647Z,45.63
2022-12-09T20:52:46.465Z,44.47
2022-12-09T20:55:14.498Z,45.40
2022-12-09T20:57:48.046Z,55.07
2022-12-09T21:00:21.113Z,49.60
2022-12-09T21:02:51.969Z,46.70
2022-12-09T21:05:36.684Z,51.60
2022-12-09T21:08:19.966Z,49.97
2022-12-09T21:10:49.972Z,44.23
2022-12-09T21:16:19.516Z,44.37
2022-12-09T21:18:49.340Z,44.70
2022-12-09T21:21:24.816Z,41.40
2022-12-09T21:23:56.330Z,44.23
2022-12-09T21:26:37.496Z,43.17
2022-12-09T21:29:09.328Z,40.03
2022-12-09T21:31:58.909Z,38.33
2022-12-09T21:34:42.106Z,37.97
2022-12-09T21:37:18.931Z,43.93
2022-12-09T21:40:09.951Z,42.57
2022-12-09T21:48:33.650Z,34.63
2022-12-09T21:51:03.289Z,32.47
2022-12-09T21:53:40.983Z,33.80
2022-12-09T21:56:36.129Z,34.87
2022-12-09T21:59:25.882Z,35.23
2022-12-09T22:01:58.456Z,44.70
2022-12-09T22:04:45.024Z,39.90
2022-12-09T22:10:29.689Z,35.47
2022-12-09T22:13:06.630Z,36.30
2022-12-09T22:18:38.471Z,33.03
2022-12-09T22:21:30.149Z,35.53
2022-12-09T22:24:12.169Z,35.73
2022-12-09T22:26:44.013Z,36.87
2022-12-09T22:29:18.196Z,33.27
2022-12-09T22:31:57.220Z,31.27
2022-12-09T22:34:29.526Z,39.20
2022-12-09T22:37:41.938Z,36.93
2022-12-09T22:40:20.065Z,34.23
2022-12-09T22:42:50.463Z,43.93
2022-12-09T22:45:17.693Z,37.23
2022-12-09T22:47:44.942Z,39.27
2022-12-09T22:50:13.328Z,37.77
2022-12-09T22:52:40.718Z,41.13
2022-12-09T22:55:08.992Z,36.60
2022-12-09T22:57:36.305Z,38.27
2022-12-09T23:00:05.386Z,38.37
2022-12-09T23:02:33.798Z,40.60
2022-12-09T23:05:00.763Z,40.37
2022-12-09T23:07:29.446Z,35.53
2022-12-09T23:09:56.517Z,34.87
2022-12-09T23:12:23.957Z,35.23
2022-12-09T23:14:50.916Z,34.63
2022-12-09T23:17:18.185Z,33.40
2022-12-09T23:19:45.079Z,34.60
2022-12-09T23:22:12.339Z,37.93
2022-12-09T23:24:40.591Z,34.97
2022-12-09T23:27:07.534Z,35.73
2022-12-09T23:29:34.552Z,34.33
2022-12-09T23:32:01.766Z,34.77
2022-12-09T23:34:28.709Z,36.27
2022-12-09T23:36:55.932Z,37.77
2022-12-09T23:39:22.932Z,36.73
2022-12-09T23:41:51.508Z,42.37
2022-12-09T23:44:18.972Z,42.60
2022-12-09T23:46:46.152Z,43.57
2022-12-09T23:49:13.180Z,44.57
2022-12-09T23:51:43.340Z,49.03
2022-12-09T23:54:11.793Z,46.47
2022-12-09T23:56:40.697Z,53.33
2022-12-09T23:59:12.196Z,42.13
